createdAt,value
2019-04-14T00:02:36.808Z,71.23
2019-04-14T00:05:08.369Z,70.73
2019-04-14T00:07:38.538Z,70.85
2019-04-14T00:10:09.362Z,70.98
2019-04-14T00:12:38.396Z,71.00
2019-04-14T00:15:23.414Z,71.21
2019-04-14T00:17:39.180Z,71.37
2019-04-14T00:20:07.639Z,70.94
2019-04-14T00:22:36.096Z,71.50
2019-04-14T00:25:06.550Z,71.68
2019-04-14T00:27:35.129Z,71.90
2019-04-14T00:30:08.156Z,71.61
2019-04-14T00:32:38.410Z,71.77
2019-04-14T00:35:14.609Z,71.59
2019-04-14T00:38:01.201Z,72.01
2019-04-14T00:40:33.033Z,71.56
2019-04-14T00:43:02.989Z,71.62
2019-04-14T00:45:43.414Z,71.75
2019-04-14T00:48:11.816Z,72.33
2019-04-14T00:50:38.681Z,72.55
2019-04-14T00:53:07.711Z,72.04
2019-04-14T00:55:36.022Z,71.90
2019-04-14T00:58:04.515Z,71.59
2019-04-14T01:00:34.101Z,71.24
2019-04-14T01:03:02.598Z,70.95
2019-04-14T01:05:32.918Z,70.76
2019-04-14T01:08:02.834Z,70.46
2019-04-14T01:10:32.189Z,70.49
2019-04-14T01:13:00.647Z,70.28
2019-04-14T01:15:29.074Z,70.36
2019-04-14T01:17:57.485Z,70.24
2019-04-14T01:20:25.976Z,70.19
2019-04-14T01:22:55.279Z,70.32
2019-04-14T01:25:23.903Z,70.21
2019-04-14T01:27:52.423Z,70.15
2019-04-14T01:30:21.971Z,69.87
2019-04-14T01:32:50.425Z,69.88
2019-04-14T01:35:20.196Z,69.95
2019-04-14T01:37:48.731Z,70.12
2019-04-14T01:40:16.886Z,70.20
2019-04-14T01:42:46.347Z,70.27
2019-04-14T01:45:16.540Z,70.05
2019-04-14T01:47:44.889Z,70.00
2019-04-14T01:50:13.420Z,70.13
2019-04-14T01:52:58.916Z,70.36
2019-04-14T01:55:44.104Z,70.17
2019-04-14T01:58:14.446Z,70.47
2019-04-14T02:00:46.960Z,71.34
2019-04-14T02:03:15.169Z,70.57
2019-04-14T02:05:43.683Z,70.64
2019-04-14T02:08:13.199Z,70.74
2019-04-14T02:10:41.686Z,70.54
2019-04-14T02:13:11.233Z,70.26
2019-04-14T02:15:39.707Z,70.65
2019-04-14T02:18:08.142Z,70.65
2019-04-14T02:20:36.642Z,70.64
2019-04-14T02:23:06.115Z,70.51
2019-04-14T02:25:35.929Z,70.40
2019-04-14T02:28:04.785Z,70.53
2019-04-14T02:30:41.606Z,70.80
2019-04-14T02:33:32.211Z,70.53
2019-04-14T02:36:05.638Z,70.17
2019-04-14T02:38:42.890Z,70.08
2019-04-14T02:41:09.276Z,70.09
2019-04-14T02:43:37.628Z,70.19
2019-04-14T02:45:57.518Z,70.25
2019-04-14T02:51:06.126Z,70.23
2019-04-14T02:53:34.391Z,70.09
2019-04-14T02:58:40.406Z,69.88
2019-04-14T03:03:30.551Z,69.79
2019-04-14T03:05:58.179Z,69.81
2019-04-14T03:08:34.338Z,69.51
2019-04-14T03:11:04.072Z,69.50
2019-04-14T03:13:49.299Z,69.70
2019-04-14T03:18:38.139Z,69.61
2019-04-14T03:21:15.883Z,69.69
2019-04-14T03:23:56.277Z,69.70
2019-04-14T03:26:26.903Z,69.88
2019-04-14T03:28:58.858Z,69.95
2019-04-14T03:37:16.422Z,69.97
2019-04-14T03:44:01.249Z,69.94
2019-04-14T03:46:50.761Z,69.87
2019-04-14T03:49:07.477Z,69.77
2019-04-14T03:52:02.497Z,69.75
2019-04-14T03:53:58.764Z,69.84
2019-04-14T03:56:14.898Z,69.77
2019-04-14T03:58:44.320Z,69.76
2019-04-14T04:01:12.743Z,69.79
2019-04-14T04:03:41.374Z,69.93
2019-04-14T04:06:09.771Z,70.17
2019-04-14T04:08:38.100Z,69.98
2019-04-14T04:11:06.578Z,70.04
2019-04-14T04:13:35.074Z,69.81
2019-04-14T04:16:13.972Z,69.81
2019-04-14T04:18:50.945Z,69.76
2019-04-14T04:21:20.551Z,69.75
2019-04-14T04:23:53.549Z,69.61
2019-04-14T04:26:30.050Z,69.55
2019-04-14T04:29:02.900Z,69.53
2019-04-14T04:31:46.028Z,69.47
2019-04-14T04:34:16.295Z,69.50
2019-04-14T04:36:57.676Z,69.55
2019-04-14T04:39:36.368Z,69.56
2019-04-14T04:42:04.832Z,69.33
2019-04-14T04:44:33.477Z,69.34
2019-04-14T04:47:03.377Z,69.35
2019-04-14T04:49:32.904Z,69.50
2019-04-14T04:52:01.866Z,69.33
2019-04-14T04:54:30.175Z,69.26
2019-04-14T04:56:58.604Z,69.40
2019-04-14T04:59:27.844Z,69.25
2019-04-14T05:01:56.069Z,69.54
2019-04-14T05:04:24.421Z,69.81
2019-04-14T05:07:01.562Z,70.00
2019-04-14T05:09:38.769Z,70.00
2019-04-14T05:12:09.118Z,69.71
2019-04-14T05:14:48.052Z,69.94
2019-04-14T05:17:19.119Z,69.83
2019-04-14T05:19:47.620Z,70.28
2019-04-14T05:22:17.836Z,70.21
2019-04-14T05:24:46.123Z,69.99
2019-04-14T05:27:14.694Z,69.87
2019-04-14T05:29:43.154Z,69.57
2019-04-14T05:32:13.080Z,69.73
2019-04-14T05:34:41.267Z,70.12
2019-04-14T05:37:09.656Z,70.06
2019-04-14T05:39:38.118Z,70.04
2019-04-14T05:42:13.237Z,70.26
2019-04-14T05:44:36.610Z,70.18
2019-04-14T05:47:05.097Z,70.16
2019-04-14T05:49:40.976Z,70.16
2019-04-14T05:52:05.506Z,70.40
2019-04-14T05:54:34.127Z,70.39
2019-04-14T05:57:02.683Z,70.48
2019-04-14T05:59:32.954Z,70.95
2019-04-14T06:02:02.322Z,71.02
2019-04-14T06:04:31.111Z,70.85
2019-04-14T06:07:01.467Z,71.06
2019-04-14T06:09:29.676Z,70.90
2019-04-14T06:11:58.155Z,70.74
2019-04-14T06:14:26.588Z,70.82
2019-04-14T06:16:55.053Z,71.13
2019-04-14T06:19:23.550Z,71.57
2019-04-14T06:21:52.019Z,72.28
2019-04-14T06:24:20.518Z,72.01
2019-04-14T06:26:48.987Z,72.40
2019-04-14T06:29:17.476Z,72.73
2019-04-14T06:31:47.608Z,73.31
2019-04-14T06:34:17.620Z,72.89
2019-04-14T06:37:03.842Z,72.43
2019-04-14T06:39:34.035Z,72.73
2019-04-14T06:42:02.397Z,72.67
2019-04-14T06:44:30.902Z,72.68
2019-04-14T06:46:59.360Z,72.96
2019-04-14T06:49:29.498Z,73.17
2019-04-14T06:51:57.869Z,72.98
2019-04-14T06:54:26.363Z,72.66
2019-04-14T06:56:54.827Z,72.53
2019-04-14T06:59:23.319Z,72.21
2019-04-14T07:01:51.786Z,72.14
2019-04-14T07:04:20.290Z,71.81
2019-04-14T07:06:51.274Z,71.77
2019-04-14T07:09:18.779Z,71.71
2019-04-14T07:11:47.257Z,71.64
2019-04-14T07:14:15.716Z,71.79
2019-04-14T07:16:44.205Z,71.64
2019-04-14T07:19:12.929Z,71.76
2019-04-14T07:21:41.176Z,71.72
2019-04-14T07:24:09.650Z,71.42
2019-04-14T07:26:38.137Z,71.63
2019-04-14T07:29:06.606Z,71.63
2019-04-14T07:31:54.602Z,71.43
2019-04-14T07:34:30.313Z,71.15
2019-04-14T07:37:05.803Z,70.99
2019-04-14T07:39:35.974Z,70.99
2019-04-14T07:42:12.579Z,70.83
2019-04-14T07:44:45.468Z,70.76
2019-04-14T07:47:15.319Z,70.68
2019-04-14T07:49:57.267Z,70.18
2019-04-14T07:52:35.852Z,70.04
2019-04-14T07:55:06.035Z,70.32
2019-04-14T07:57:36.022Z,69.87
2019-04-14T08:00:19.366Z,69.76
2019-04-14T08:02:50.281Z,69.97
2019-04-14T08:05:23.229Z,69.71
2019-04-14T08:07:51.650Z,69.69
2019-04-14T08:10:20.095Z,69.69
2019-04-14T08:12:48.672Z,69.51
2019-04-14T08:15:17.096Z,69.30
2019-04-14T08:17:45.547Z,69.30
2019-04-14T08:20:26.514Z,69.16
2019-04-14T08:22:44.059Z,69.29
2019-04-14T08:25:12.540Z,69.33
2019-04-14T08:27:41.017Z,69.12
2019-04-14T08:30:09.528Z,68.52
2019-04-14T08:32:37.977Z,68.52
2019-04-14T08:35:06.919Z,68.38
2019-04-14T08:37:35.466Z,68.19
2019-04-14T08:40:03.998Z,67.72
2019-04-14T08:42:33.845Z,67.80
2019-04-14T08:45:04.074Z,67.51
2019-04-14T08:47:39.777Z,67.37
2019-04-14T08:50:12.415Z,67.37
2019-04-14T08:52:44.922Z,67.38
2019-04-14T08:55:17.619Z,67.12
2019-04-14T08:57:53.532Z,66.78
2019-04-14T09:00:35.568Z,66.57
2019-04-14T09:03:21.492Z,66.60
2019-04-14T09:05:57.306Z,67.04
2019-04-14T09:08:30.641Z,66.93
2019-04-14T09:11:12.716Z,67.03
2019-04-14T09:13:41.695Z,66.77
2019-04-14T09:16:10.221Z,66.66
2019-04-14T09:18:38.674Z,66.55
2019-04-14T09:21:07.233Z,66.70
2019-04-14T09:23:35.783Z,67.22
2019-04-14T09:26:04.166Z,66.74
2019-04-14T09:28:32.631Z,65.99
2019-04-14T09:31:01.126Z,66.11
2019-04-14T09:33:29.606Z,65.94
2019-04-14T09:35:59.721Z,66.30
2019-04-14T09:38:28.135Z,67.16
2019-04-14T09:40:57.297Z,67.16
2019-04-14T09:43:25.564Z,67.75
2019-04-14T09:45:54.061Z,68.17
2019-04-14T09:48:22.538Z,68.01
2019-04-14T09:50:51.044Z,67.74
2019-04-14T09:53:19.486Z,67.63
2019-04-14T09:55:47.989Z,67.62
2019-04-14T09:58:16.463Z,67.55
2019-04-14T10:00:45.120Z,68.30
2019-04-14T10:03:13.415Z,68.30
2019-04-14T10:05:42.046Z,68.17
2019-04-14T10:08:10.241Z,68.64
2019-04-14T10:10:38.903Z,68.72
2019-04-14T10:13:07.353Z,68.65
2019-04-14T10:15:35.846Z,68.59
2019-04-14T10:18:04.310Z,68.78
2019-04-14T10:20:32.807Z,68.86
2019-04-14T10:23:01.266Z,68.86
2019-04-14T10:25:29.783Z,69.03
2019-04-14T10:27:58.432Z,69.24
2019-04-14T10:30:26.712Z,69.30
2019-04-14T10:32:55.203Z,69.06
2019-04-14T10:35:23.674Z,69.06
2019-04-14T10:37:52.177Z,69.63
2019-04-14T10:40:20.637Z,69.68
2019-04-14T10:42:49.381Z,69.64
2019-04-14T10:45:18.516Z,69.64
2019-04-14T10:47:47.120Z,69.78
2019-04-14T10:50:15.610Z,69.64
2019-04-14T10:52:44.097Z,69.64
2019-04-14T10:55:12.557Z,69.42
2019-04-14T10:57:41.031Z,69.34
2019-04-14T11:00:11.435Z,69.10
2019-04-14T11:02:40.658Z,69.10
2019-04-14T11:05:09.290Z,69.19
2019-04-14T11:07:37.519Z,69.17
2019-04-14T11:10:07.444Z,69.51
2019-04-14T11:12:36.411Z,69.63
2019-04-14T11:15:06.350Z,69.52
2019-04-14T11:17:34.544Z,69.32
2019-04-14T11:20:03.482Z,69.12
2019-04-14T11:22:31.953Z,68.90
2019-04-14T11:25:00.469Z,68.47
2019-04-14T11:27:28.676Z,68.56
2019-04-14T11:29:56.892Z,68.56
2019-04-14T11:32:41.374Z,68.53
2019-04-14T11:35:11.420Z,68.57
2019-04-14T11:37:41.419Z,68.40
2019-04-14T11:40:12.948Z,68.28
2019-04-14T11:42:51.851Z,68.28
2019-04-14T11:45:11.318Z,68.09
2019-04-14T11:47:40.584Z,67.88
2019-04-14T11:50:08.883Z,67.84
2019-04-14T11:52:37.315Z,67.66
2019-04-14T11:55:05.987Z,67.13
2019-04-14T11:57:34.300Z,67.13
2019-04-14T12:00:19.916Z,67.47
2019-04-14T12:03:04.893Z,67.59
2019-04-14T12:05:40.535Z,67.52
2019-04-14T12:08:16.159Z,67.96
2019-04-14T12:10:44.363Z,67.91
2019-04-14T12:13:12.816Z,67.70
2019-04-14T12:15:41.268Z,67.03
2019-04-14T12:18:09.768Z,67.13
2019-04-14T12:20:38.233Z,67.13
2019-04-14T12:23:06.725Z,67.14
2019-04-14T12:25:35.204Z,67.54
2019-04-14T12:28:04.775Z,67.54
2019-04-14T12:30:33.362Z,67.61
2019-04-14T12:33:01.657Z,66.94
2019-04-14T12:35:30.158Z,66.94
2019-04-14T12:37:58.631Z,66.73
2019-04-14T12:40:28.481Z,66.70
2019-04-14T12:43:06.795Z,67.00
2019-04-14T12:45:51.641Z,67.00
2019-04-14T12:48:30.601Z,66.88
2019-04-14T12:51:03.501Z,66.95
2019-04-14T12:53:32.009Z,66.95
2019-04-14T12:56:00.881Z,66.97
2019-04-14T12:58:31.121Z,66.69
2019-04-14T13:01:03.581Z,66.65
2019-04-14T13:03:32.662Z,66.59
2019-04-14T13:06:01.081Z,66.20
2019-04-14T13:08:29.568Z,66.20
2019-04-14T13:10:58.211Z,66.08
2019-04-14T13:13:26.525Z,66.04
2019-04-14T13:15:55.006Z,66.44
2019-04-14T13:18:23.491Z,66.40
2019-04-14T13:20:51.960Z,65.80
2019-04-14T13:23:20.470Z,65.59
2019-04-14T13:25:48.932Z,65.38
2019-04-14T13:28:17.427Z,65.50
2019-04-14T13:30:48.271Z,65.40
2019-04-14T13:33:18.110Z,65.22
2019-04-14T13:35:46.435Z,65.22
2019-04-14T13:38:14.930Z,64.79
2019-04-14T13:40:43.397Z,65.10
2019-04-14T13:43:11.900Z,64.89
2019-04-14T13:45:40.353Z,65.11
2019-04-14T13:48:08.854Z,64.76
2019-04-14T13:50:37.339Z,64.56
2019-04-14T13:53:05.821Z,64.76
2019-04-14T13:55:34.021Z,64.53
2019-04-14T13:58:02.271Z,64.53
2019-04-14T14:00:31.417Z,64.59
2019-04-14T14:02:59.746Z,64.83
2019-04-14T14:05:28.204Z,64.15
2019-04-14T14:07:56.719Z,64.57
2019-04-14T14:10:25.168Z,64.96
2019-04-14T14:12:55.357Z,64.58
2019-04-14T14:15:25.313Z,64.30
2019-04-14T14:18:00.864Z,64.19
2019-04-14T14:20:45.812Z,64.09
2019-04-14T14:23:18.746Z,63.79
2019-04-14T14:25:51.624Z,63.56
2019-04-14T14:28:19.882Z,63.90
2019-04-14T14:30:48.351Z,63.91
2019-04-14T14:33:16.562Z,63.76
2019-04-14T14:35:44.815Z,64.12
2019-04-14T14:38:14.669Z,64.42
2019-04-14T14:40:42.860Z,63.19
2019-04-14T14:43:11.267Z,63.24
2019-04-14T14:45:57.609Z,63.26
2019-04-14T14:48:33.743Z,63.66
2019-04-14T14:51:03.970Z,63.30
2019-04-14T14:53:32.341Z,63.14
2019-04-14T14:56:00.882Z,63.36
2019-04-14T14:58:29.293Z,63.11
2019-04-14T15:00:57.769Z,63.04
2019-04-14T15:03:26.353Z,62.68
2019-04-14T15:05:54.821Z,62.09
2019-04-14T15:08:23.251Z,62.22
2019-04-14T15:10:51.912Z,61.73
2019-04-14T15:13:20.202Z,61.84
2019-04-14T15:15:48.946Z,61.50
2019-04-14T15:18:17.220Z,61.67
2019-04-14T15:20:45.636Z,61.49
2019-04-14T15:23:24.382Z,61.83
2019-04-14T15:25:44.144Z,62.12
2019-04-14T15:28:15.519Z,61.56
2019-04-14T15:30:42.651Z,61.40
2019-04-14T15:33:10.850Z,60.92
2019-04-14T15:35:39.076Z,60.44
2019-04-14T15:38:07.615Z,60.06
2019-04-14T15:40:36.045Z,60.14
2019-04-14T15:43:04.558Z,60.42
2019-04-14T15:45:33.004Z,60.25
2019-04-14T15:48:01.496Z,59.85
2019-04-14T15:50:29.974Z,59.86
2019-04-14T15:52:58.445Z,59.94
2019-04-14T15:55:26.988Z,59.64
2019-04-14T15:58:11.859Z,60.55
2019-04-14T16:00:41.911Z,60.81
2019-04-14T16:03:29.841Z,60.47
2019-04-14T16:05:59.862Z,59.96
2019-04-14T16:08:35.619Z,59.60
2019-04-14T16:11:08.496Z,59.30
2019-04-14T16:13:44.334Z,59.18
2019-04-14T16:16:28.833Z,59.40
2019-04-14T16:19:01.717Z,58.94
2019-04-14T16:21:30.133Z,59.02
2019-04-14T16:23:58.558Z,58.42
2019-04-14T16:26:31.360Z,58.04
2019-04-14T16:29:02.716Z,58.33
2019-04-14T16:31:50.454Z,57.57
2019-04-14T16:34:23.147Z,58.87
2019-04-14T16:36:52.658Z,59.22
2019-04-14T16:39:20.872Z,59.65
2019-04-14T16:41:49.157Z,59.70
2019-04-14T16:44:17.660Z,59.70
2019-04-14T16:46:46.126Z,59.97
2019-04-14T16:49:14.634Z,59.92
2019-04-14T16:51:44.724Z,59.47
2019-04-14T16:54:14.760Z,58.68
2019-04-14T16:56:44.764Z,58.65
2019-04-14T16:59:13.415Z,59.01
2019-04-14T17:01:43.195Z,59.04
2019-04-14T17:04:11.638Z,58.34
2019-04-14T17:06:40.129Z,58.21
2019-04-14T17:09:08.596Z,58.76
2019-04-14T17:11:37.353Z,59.48
2019-04-14T17:14:09.902Z,60.11
2019-04-14T17:16:42.401Z,60.29
2019-04-14T17:19:21.290Z,60.36
2019-04-14T17:21:51.137Z,60.97
2019-04-14T17:24:37.249Z,61.20
2019-04-14T17:27:07.530Z,61.55
2019-04-14T17:29:46.196Z,61.88
2019-04-14T17:32:23.022Z,62.07
2019-04-14T17:34:52.914Z,62.39
2019-04-14T17:37:25.454Z,62.39
2019-04-14T17:40:11.425Z,62.85
2019-04-14T17:42:44.368Z,62.88
2019-04-14T17:45:26.268Z,62.95
2019-04-14T17:48:11.266Z,63.16
2019-04-14T17:50:50.188Z,63.31
2019-04-14T17:53:23.337Z,63.45
2019-04-14T17:56:11.616Z,63.40
2019-04-14T17:58:59.339Z,63.41
2019-04-14T18:01:38.091Z,63.54
2019-04-14T18:04:22.902Z,63.80
2019-04-14T18:06:54.004Z,63.98
2019-04-14T18:09:23.986Z,63.92
2019-04-14T18:12:10.394Z,63.99
2019-04-14T18:14:49.300Z,64.10
2019-04-14T18:17:27.858Z,64.23
2019-04-14T18:20:03.503Z,64.28
2019-04-14T18:22:31.854Z,64.34
2019-04-14T18:25:00.391Z,64.51
2019-04-14T18:27:30.460Z,64.44
2019-04-14T18:30:16.733Z,64.49
2019-04-14T18:32:49.549Z,64.62
2019-04-14T18:35:21.060Z,64.71
2019-04-14T18:38:06.284Z,64.75
2019-04-14T18:40:36.368Z,64.68
2019-04-14T18:43:06.402Z,64.63
2019-04-14T18:45:39.167Z,64.64
2019-04-14T18:48:24.961Z,64.67
2019-04-14T18:50:54.955Z,64.90
2019-04-14T18:53:40.074Z,64.90
2019-04-14T18:56:22.127Z,64.78
2019-04-14T18:59:01.199Z,64.79
2019-04-14T19:01:31.292Z,64.93
2019-04-14T19:04:02.171Z,64.85
2019-04-14T19:06:29.708Z,64.79
2019-04-14T19:08:58.415Z,64.72
2019-04-14T19:11:28.301Z,64.88
2019-04-14T19:14:01.206Z,64.77
2019-04-14T19:16:40.272Z,64.61
2019-04-14T19:19:09.926Z,64.67
2019-04-14T19:21:38.501Z,64.73
2019-04-14T19:24:07.003Z,64.81
2019-04-14T19:26:35.484Z,64.81
2019-04-14T19:29:04.969Z,64.80
2019-04-14T19:31:33.467Z,64.87
2019-04-14T19:34:01.921Z,64.71
2019-04-14T19:36:30.470Z,64.63
2019-04-14T19:38:58.916Z,64.66
2019-04-14T19:41:27.381Z,64.65
2019-04-14T19:43:55.910Z,64.84
2019-04-14T19:46:25.060Z,64.66
2019-04-14T19:48:53.355Z,64.75
2019-04-14T19:51:21.840Z,64.86
2019-04-14T19:53:50.292Z,64.69
2019-04-14T19:56:18.789Z,64.85
2019-04-14T19:58:47.267Z,65.10
2019-04-14T20:01:15.745Z,65.07
2019-04-14T20:03:44.223Z,65.03
2019-04-14T20:06:12.722Z,65.41
2019-04-14T20:08:41.180Z,65.59
2019-04-14T20:11:09.681Z,65.70
2019-04-14T20:13:39.789Z,65.63
2019-04-14T20:16:25.940Z,65.42
2019-04-14T20:18:55.795Z,65.36
2019-04-14T20:21:35.495Z,65.63
2019-04-14T20:24:05.459Z,65.64
2019-04-14T20:26:41.015Z,65.93
2019-04-14T20:29:13.514Z,66.02
2019-04-14T20:31:43.692Z,66.21
2019-04-14T20:34:12.093Z,66.33
2019-04-14T20:36:40.560Z,66.29
2019-04-14T20:39:11.254Z,66.40
2019-04-14T20:41:39.585Z,66.48
2019-04-14T20:44:08.050Z,66.33
2019-04-14T20:46:36.539Z,66.41
2019-04-14T20:49:05.098Z,66.41
2019-04-14T20:51:33.665Z,66.67
2019-04-14T20:54:01.968Z,66.77
2019-04-14T20:56:30.482Z,66.61
2019-04-14T20:58:58.927Z,66.68
2019-04-14T21:01:29.072Z,66.57
2019-04-14T21:04:10.777Z,66.57
2019-04-14T21:06:58.759Z,66.72
2019-04-14T21:09:44.756Z,66.72
2019-04-14T21:12:17.179Z,66.57
2019-04-14T21:14:56.409Z,66.64
2019-04-14T21:17:32.267Z,66.57
2019-04-14T21:20:04.895Z,66.57
2019-04-14T21:22:40.576Z,66.64
2019-04-14T21:25:16.423Z,66.63
2019-04-14T21:27:52.351Z,66.46
2019-04-14T21:30:22.191Z,66.49
2019-04-14T21:32:52.313Z,66.47
2019-04-14T21:35:39.961Z,66.58
2019-04-14T21:38:18.915Z,66.65
2019-04-14T21:40:48.877Z,66.79
2019-04-14T21:43:18.924Z,66.93
2019-04-14T21:45:47.307Z,66.88
2019-04-14T21:48:15.781Z,66.76
2019-04-14T21:50:44.252Z,66.71
2019-04-14T21:53:12.739Z,66.77
2019-04-14T21:55:41.219Z,66.44
2019-04-14T21:58:11.325Z,66.70
2019-04-14T22:01:05.278Z,66.69
2019-04-14T22:03:35.421Z,66.78
2019-04-14T22:06:05.453Z,66.95
2019-04-14T22:08:35.450Z,66.78
2019-04-14T22:11:08.164Z,66.78
2019-04-14T22:13:38.037Z,66.99
2019-04-14T22:16:06.499Z,66.77
2019-04-14T22:18:34.984Z,66.80
2019-04-14T22:21:03.482Z,66.55
2019-04-14T22:23:31.883Z,66.55
2019-04-14T22:26:00.375Z,66.70
2019-04-14T22:28:28.834Z,66.70
2019-04-14T22:30:57.960Z,66.67
2019-04-14T22:33:26.313Z,66.67
2019-04-14T22:35:54.801Z,66.62
2019-04-14T22:38:23.279Z,66.62
2019-04-14T22:40:51.776Z,66.93
2019-04-14T22:43:20.239Z,66.93
2019-04-14T22:45:48.734Z,66.96
2019-04-14T22:48:17.201Z,67.12
2019-04-14T22:50:45.712Z,67.09
2019-04-14T22:53:14.163Z,66.97
2019-04-14T22:55:42.659Z,67.14
2019-04-14T22:58:11.124Z,66.84
2019-04-14T23:00:43.967Z,66.91
2019-04-14T23:03:30.497Z,66.77
2019-04-14T23:06:00.786Z,66.77
2019-04-14T23:08:36.445Z,66.90
2019-04-14T23:11:15.436Z,66.89
2019-04-14T23:13:57.526Z,66.98
2019-04-14T23:16:33.139Z,67.06
2019-04-14T23:19:04.080Z,67.23
2019-04-14T23:21:37.020Z,67.37
2019-04-14T23:24:21.778Z,67.37
2019-04-14T23:26:52.677Z,67.26
2019-04-14T23:29:19.957Z,67.22
2019-04-14T23:31:48.485Z,67.45
2019-04-14T23:34:16.924Z,67.45
2019-04-14T23:36:45.420Z,67.22
2019-04-14T23:39:13.886Z,67.47
2019-04-14T23:41:42.347Z,67.38
2019-04-14T23:44:10.852Z,67.53
2019-04-14T23:46:39.313Z,67.53
2019-04-14T23:49:07.833Z,67.37
2019-04-14T23:51:36.270Z,67.28
2019-04-14T23:54:04.757Z,67.35
2019-04-14T23:56:33.254Z,67.35
2019-04-14T23:59:01.880Z,67.36
